Time;durP1;ratioP1;P1;durP2;ratioP2;P2;SDS_P1;SDS_P2;PMS_P1;PMS_P2;Temp;Humidity;BMP_temperature;BMP_pressure;BME280_temperature;BME280_humidity;BME280_pressure;Samples;Min_cycle;Max_cycle;Signal;HPM_P1;HPM_P2
2022/07/03 00:01:33;;;;;;;;;;;;;;;;;;2205840;67;1151;-65
2022/07/03 00:04:09;;;;;;;;;;;;;;;;;;2206181;59;1173;-66
2022/07/03 00:06:42;;;;;;;;;;;;;;;;;;2205488;59;1125;-66
2022/07/03 00:09:15;;;;;;;;;;;;;;;;;;2205809;67;1290;-65
2022/07/03 00:11:49;;;;;;;;;;;;;;;;;;2205862;59;1380;-65
2022/07/03 00:14:22;;;;;;;;;;;;;;;;;;2206011;67;1928;-65
2022/07/03 00:16:55;;;;;;;;;;;;;;;;;;2205672;59;1318;-62
2022/07/03 00:19:31;;;;;;;;;;;;;;;;;;2205839;67;1118;-65
2022/07/03 00:22:05;;;;;;;;;;;;;;;;;;2206285;67;1125;-67
2022/07/03 00:24:42;;;;;;;;;;;;;;;;;;2205503;67;1156;-67
2022/07/03 00:27:16;;;;;;;;;;;;;;;;;;2206484;67;1287;-65
2022/07/03 00:29:51;;;;;;;;;;;;;;;;;;2205046;67;1167;-66
2022/07/03 00:32:25;;;;;;;;;;;;;;;;;;2205595;59;2002;-65
2022/07/03 00:35:02;;;;;;;;;;;;;;;;;;2205969;67;1232;-66
2022/07/03 00:37:35;;;;;;;;;;;;;;;;;;2205306;67;1219;-66
2022/07/03 00:40:09;;;;;;;;;;;;;;;;;;2206183;67;1257;-66
2022/07/03 00:42:43;;;;;;;;;;;;;;;;;;2205278;59;2252;-66
2022/07/03 00:45:18;;;;;;;;;;;;;;;;;;2206245;67;1192;-66
2022/07/03 00:47:51;;;;;;;;;;;;;;;;;;2205991;67;1239;-66
2022/07/03 00:50:28;;;;;;;;;;;;;;;;;;2206344;67;1155;-66
2022/07/03 00:53:03;;;;;;;;;;;;;;;;;;2206276;67;1932;-66
2022/07/03 00:55:37;;;;;;;;;;;;;;;;;;2205651;67;1082;-66
2022/07/03 00:58:10;;;;;;;;;;;;;;;;;;2205993;59;1266;-66
2022/07/03 01:00:43;;;;;;;;;;;;;;;;;;2205607;67;1195;-65
2022/07/03 01:03:19;;;;;;;;;;;;;;;;;;2206039;59;1343;-65
2022/07/03 01:05:55;;;;;;;;;;;;;;;;;;2202626;67;1773;-65
2022/07/03 01:08:31;;;;;;;;;;;;;;;;;;2205814;67;1299;-67
2022/07/03 01:11:06;;;;;;;;;;;;;;;;;;2205759;59;1434;-65
2022/07/03 01:13:43;;;;;;;;;;;;;;;;;;2205708;67;1916;-66
2022/07/03 01:16:20;;;;;;;;;;;;;;;;;;2205791;59;1263;-65
2022/07/03 01:18:56;;;;;;;;;;;;;;;;;;2206442;67;1310;-66
2022/07/03 01:21:36;;;;;;;;;;;;;;;;;;2205227;67;1173;-66
2022/07/03 01:24:24;;;;;;;;;;;;;;;;;;2205733;67;1247;-66
2022/07/03 01:27:06;;;;;;;;;;;;;;;;;;2206207;59;1244;-66
2022/07/03 01:29:44;;;;;;;;;;;;;;;;;;2205369;67;1120;-69
2022/07/03 01:32:17;;;;;;;;;;;;;;;;;;2206054;67;2293;-65
2022/07/03 01:34:53;;;;;;;;;;;;;;;;;;2205740;67;1937;-65
2022/07/03 01:37:29;;;;;;;;;;;;;;;;;;2205449;67;1305;-66
2022/07/03 01:40:04;;;;;;;;;;;;;;;;;;2205828;67;1207;-65
2022/07/03 01:42:42;;;;;;;;;;;;;;;;;;2205652;59;2247;-66
2022/07/03 01:45:16;;;;;;;;;;;;;;;;;;2205982;67;1214;-65
2022/07/03 01:47:50;;;;;;;;;;;;;;;;;;2205975;59;1196;-66
2022/07/03 01:50:24;;;;;;;;;;;;;;;;;;2204765;67;1262;-65
2022/07/03 01:53:00;;;;;;;;;;;;;;;;;;2205846;67;1933;-63
2022/07/03 01:55:34;;;;;;;;;;;;;;;;;;2205661;67;1152;-65
2022/07/03 01:58:10;;;;;;;;;;;;;;;;;;2205794;59;1560;-66
2022/07/03 02:00:48;;;;;;;;;;;;;;;;;;2206194;67;1155;-66
2022/07/03 02:03:26;;;;;;;;;;;;;;;;;;2205049;67;1212;-66
2022/07/03 02:06:04;;;;;;;;;;;;;;;;;;2204835;67;1210;-66
2022/07/03 02:08:45;;;;;;;;;;;;;;;;;;2205081;67;1249;-65
2022/07/03 02:11:20;;;;;;;;;;;;;;;;;;2205260;59;1360;-66
2022/07/03 02:13:58;;;;;;;;;;;;;;;;;;2206051;67;1920;-67
2022/07/03 02:16:33;;;;;;;;;;;;;;;;;;2205441;67;1220;-65
2022/07/03 02:19:07;;;;;;;;;;;;;;;;;;2205615;67;1317;-65
2022/07/03 02:21:43;;;;;;;;;;;;;;;;;;2205174;67;1148;-64
2022/07/03 02:24:19;;;;;;;;;;;;;;;;;;2205816;67;1140;-65
2022/07/03 02:26:56;;;;;;;;;;;;;;;;;;2206034;67;1238;-65
2022/07/03 02:29:36;;;;;;;;;;;;;;;;;;2205305;67;1082;-65
2022/07/03 02:32:13;;;;;;;;;;;;;;;;;;2205344;59;1907;-63
2022/07/03 02:34:50;;;;;;;;;;;;;;;;;;2205443;67;1983;-65
2022/07/03 02:37:24;;;;;;;;;;;;;;;;;;2205211;67;1188;-65
2022/07/03 02:40:02;;;;;;;;;;;;;;;;;;2205805;67;1173;-66
2022/07/03 02:42:40;;;;;;;;;;;;;;;;;;2205206;59;2063;-65
2022/07/03 02:45:16;;;;;;;;;;;;;;;;;;2205677;67;1253;-66
2022/07/03 02:47:51;;;;;;;;;;;;;;;;;;2205260;59;1702;-66
2022/07/03 02:50:24;;;;;;;;;;;;;;;;;;2205248;67;1220;-65
2022/07/03 02:53:04;;;;;;;;;;;;;;;;;;2204796;59;1928;-65
2022/07/03 02:55:43;;;;;;;;;;;;;;;;;;2205278;67;1216;-65
2022/07/03 02:58:34;;;;;;;;;;;;;;;;;;2205381;59;1261;-66
2022/07/03 03:01:15;;;;;;;;;;;;;;;;;;2201413;67;1419;-64
2022/07/03 03:03:53;;;;;;;;;;;;;;;;;;2201285;59;2088;-65
2022/07/03 03:06:29;;;;;;;;;;;;;;;;;;2204919;59;1343;-64
2022/07/03 03:09:04;;;;;;;;;;;;;;;;;;2206055;59;1331;-66
2022/07/03 03:11:43;;;;;;;;;;;;;;;;;;2205029;59;1244;-65
2022/07/03 03:14:17;;;;;;;;;;;;;;;;;;2205922;67;1933;-65
2022/07/03 03:16:54;;;;;;;;;;;;;;;;;;2205766;67;1226;-64
2022/07/03 03:19:27;;;;;;;;;;;;;;;;;;2204998;67;1233;-65
2022/07/03 03:22:06;;;;;;;;;;;;;;;;;;2205181;67;1399;-65
2022/07/03 03:24:39;;;;;;;;;;;;;;;;;;2205069;67;1191;-65
2022/07/03 03:27:12;;;;;;;;;;;;;;;;;;2205782;59;1265;-64
2022/07/03 03:29:46;;;;;;;;;;;;;;;;;;2205129;67;1267;-65
2022/07/03 03:32:23;;;;;;;;;;;;;;;;;;2205893;59;1931;-65
2022/07/03 03:34:56;;;;;;;;;;;;;;;;;;2205619;67;1941;-65
2022/07/03 03:37:30;;;;;;;;;;;;;;;;;;2206037;67;1345;-66
2022/07/03 03:40:04;;;;;;;;;;;;;;;;;;2206249;67;1267;-65
2022/07/03 03:42:37;;;;;;;;;;;;;;;;;;2206381;59;2033;-65
2022/07/03 03:45:11;;;;;;;;;;;;;;;;;;2206922;67;1237;-64
2022/07/03 03:47:47;;;;;;;;;;;;;;;;;;2206807;59;1207;-64
2022/07/03 03:50:20;;;;;;;;;;;;;;;;;;2205926;67;1239;-65
2022/07/03 03:52:54;;;;;;;;;;;;;;;;;;2206478;67;1152;-64
2022/07/03 03:55:27;;;;;;;;;;;;;;;;;;2206615;67;1932;-66
2022/07/03 03:58:01;;;;;;;;;;;;;;;;;;2206499;59;1191;-65
2022/07/03 04:00:34;;;;;;;;;;;;;;;;;;2206743;67;1156;-65
2022/07/03 04:03:10;;;;;;;;;;;;;;;;;;2206124;59;1172;-66
2022/07/03 04:05:43;;;;;;;;;;;;;;;;;;2206572;67;1115;-65
2022/07/03 04:08:17;;;;;;;;;;;;;;;;;;2206107;67;1233;-65
2022/07/03 04:10:50;;;;;;;;;;;;;;;;;;2206214;59;1184;-66
2022/07/03 04:13:23;;;;;;;;;;;;;;;;;;2202637;67;1928;-65
2022/07/03 04:15:57;;;;;;;;;;;;;;;;;;2206306;67;1129;-65
2022/07/03 04:18:32;;;;;;;;;;;;;;;;;;2206230;67;1269;-65
2022/07/03 04:21:06;;;;;;;;;;;;;;;;;;2206411;67;1197;-65
2022/07/03 04:23:39;;;;;;;;;;;;;;;;;;2205916;67;1058;-65
2022/07/03 04:26:12;;;;;;;;;;;;;;;;;;2206377;59;1347;-65
2022/07/03 04:28:45;;;;;;;;;;;;;;;;;;2205756;60;1184;-65
2022/07/03 04:31:18;;;;;;;;;;;;;;;;;;2205773;67;2085;-66
2022/07/03 04:33:54;;;;;;;;;;;;;;;;;;2205709;67;1933;-65
2022/07/03 04:36:28;;;;;;;;;;;;;;;;;;2205912;67;1148;-66
2022/07/03 04:39:01;;;;;;;;;;;;;;;;;;2205910;67;1267;-66
2022/07/03 04:41:34;;;;;;;;;;;;;;;;;;2205864;59;1920;-65
2022/07/03 04:44:08;;;;;;;;;;;;;;;;;;2206158;67;1262;-66
2022/07/03 04:46:41;;;;;;;;;;;;;;;;;;2205923;67;1077;-66
2022/07/03 04:49:17;;;;;;;;;;;;;;;;;;2206010;67;1221;-65
2022/07/03 04:51:52;;;;;;;;;;;;;;;;;;2205739;67;1150;-65
2022/07/03 04:54:25;;;;;;;;;;;;;;;;;;2206091;67;1939;-64
2022/07/03 04:56:58;;;;;;;;;;;;;;;;;;2205782;59;1200;-64
2022/07/03 05:12:54;;;;;;;;;;;;;;;;;;2237624;53;1658;-74
2022/07/03 05:15:27;;;;;;;;;;;;;;;;;;2208230;67;1963;-74
2022/07/03 05:18:01;;;;;;;;;;;;;;;;;;2209935;67;1241;-74
2022/07/03 05:20:34;;;;;;;;;;;;;;;;;;2208821;67;1114;-74
2022/07/03 05:23:07;;;;;;;;;;;;;;;;;;2210335;67;1255;-74
2022/07/03 05:25:40;;;;;;;;;;;;;;;;;;2209921;59;1236;-74
2022/07/03 05:28:16;;;;;;;;;;;;;;;;;;2209488;67;1149;-74
2022/07/03 05:30:49;;;;;;;;;;;;;;;;;;2209241;59;1872;-74
2022/07/03 05:33:22;;;;;;;;;;;;;;;;;;2209427;59;1182;-74
2022/07/03 05:35:57;;;;;;;;;;;;;;;;;;2210082;67;1932;-74
2022/07/03 05:41:19;;;;;;;;;;;;;;;;;;2209288;67;1221;-74
2022/07/03 05:43:55;;;;;;;;;;;;;;;;;;2209818;59;1705;-74
2022/07/03 05:46:28;;;;;;;;;;;;;;;;;;2209458;59;1193;-74
2022/07/03 05:49:01;;;;;;;;;;;;;;;;;;2210583;67;1270;-74
2022/07/03 05:51:34;;;;;;;;;;;;;;;;;;2209082;67;1132;-74
2022/07/03 05:54:08;;;;;;;;;;;;;;;;;;2209194;67;1995;-74
2022/07/03 05:56:41;;;;;;;;;;;;;;;;;;2208358;67;1107;-74
2022/07/03 05:59:17;;;;;;;;;;;;;;;;;;2209799;67;1210;-74
2022/07/03 06:01:50;;;;;;;;;;;;;;;;;;2209626;67;1236;-74
2022/07/03 06:04:23;;;;;;;;;;;;;;;;;;2209667;67;1274;-74
2022/07/03 06:06:57;;;;;;;;;;;;;;;;;;2209125;67;1093;-74
2022/07/03 06:09:30;;;;;;;;;;;;;;;;;;2210260;59;2251;-74
2022/07/03 06:12:03;;;;;;;;;;;;;;;;;;2209744;59;1377;-74
2022/07/03 06:14:39;;;;;;;;;;;;;;;;;;2209200;59;1928;-74
2022/07/03 06:17:12;;;;;;;;;;;;;;;;;;2209369;59;1191;-74
2022/07/03 06:19:45;;;;;;;;;;;;;;;;;;2209079;67;1155;-74
2022/07/03 06:22:18;;;;;;;;;;;;;;;;;;2209584;67;1203;-74
2022/07/03 06:24:51;;;;;;;;;;;;;;;;;;2209144;59;1203;-74
2022/07/03 06:27:24;;;;;;;;;;;;;;;;;;2210011;59;1373;-74
2022/07/03 06:30:00;;;;;;;;;;;;;;;;;;2209678;67;1195;-74
2022/07/03 06:32:33;;;;;;;;;;;;;;;;;;2209549;59;2215;-74
2022/07/03 06:35:07;;;;;;;;;;;;;;;;;;2209576;67;1941;-74
2022/07/03 06:37:40;;;;;;;;;;;;;;;;;;2209001;67;1188;-74
2022/07/03 06:40:13;;;;;;;;;;;;;;;;;;2209024;67;1064;-74
2022/07/03 06:42:46;;;;;;;;;;;;;;;;;;2209417;59;2205;-74
2022/07/03 06:45:22;;;;;;;;;;;;;;;;;;2209988;67;1290;-74
2022/07/03 06:47:55;;;;;;;;;;;;;;;;;;2209588;67;1180;-74
2022/07/03 06:50:29;;;;;;;;;;;;;;;;;;2209510;67;1177;-74
2022/07/03 06:53:02;;;;;;;;;;;;;;;;;;2209366;67;1299;-74
2022/07/03 06:55:35;;;;;;;;;;;;;;;;;;2209035;67;1964;-74
2022/07/03 06:58:08;;;;;;;;;;;;;;;;;;2209774;67;1227;-74
2022/07/03 07:00:44;;;;;;;;;;;;;;;;;;2208794;67;1061;-74
2022/07/03 07:03:17;;;;;;;;;;;;;;;;;;2205370;67;1282;-74
2022/07/03 07:05:50;;;;;;;;;;;;;;;;;;2207751;67;1013;-75
2022/07/03 07:08:24;;;;;;;;;;;;;;;;;;2209041;59;1291;-74
2022/07/03 07:10:57;;;;;;;;;;;;;;;;;;2209148;59;1904;-75
2022/07/03 07:13:30;;;;;;;;;;;;;;;;;;2209055;67;1089;-75
2022/07/03 07:16:06;;;;;;;;;;;;;;;;;;2209643;67;1929;-74
2022/07/03 07:18:39;;;;;;;;;;;;;;;;;;2209207;67;1094;-74
2022/07/03 07:21:13;;;;;;;;;;;;;;;;;;2209523;59;1131;-75
2022/07/03 07:23:46;;;;;;;;;;;;;;;;;;2209361;59;1827;-75
2022/07/03 07:26:20;;;;;;;;;;;;;;;;;;2208980;59;1986;-74
2022/07/03 07:28:53;;;;;;;;;;;;;;;;;;2209887;67;1213;-75
2022/07/03 07:31:29;;;;;;;;;;;;;;;;;;2208804;59;1984;-74
2022/07/03 07:34:04;;;;;;;;;;;;;;;;;;2209045;67;1235;-74
2022/07/03 07:36:37;;;;;;;;;;;;;;;;;;2205433;67;1929;-75
2022/07/03 07:39:10;;;;;;;;;;;;;;;;;;2208740;67;1207;-74
2022/07/03 07:41:43;;;;;;;;;;;;;;;;;;2209554;59;1933;-74
2022/07/03 07:44:17;;;;;;;;;;;;;;;;;;2209302;67;1181;-75
2022/07/03 07:46:53;;;;;;;;;;;;;;;;;;2209230;59;1132;-75
2022/07/03 07:49:26;;;;;;;;;;;;;;;;;;2208860;59;1290;-75
2022/07/03 07:51:59;;;;;;;;;;;;;;;;;;2209468;67;1217;-74
2022/07/03 07:54:32;;;;;;;;;;;;;;;;;;2205495;67;1307;-75
2022/07/03 07:57:05;;;;;;;;;;;;;;;;;;2205825;67;1935;-74
2022/07/03 07:59:39;;;;;;;;;;;;;;;;;;2208172;67;1155;-75
2022/07/03 08:07:52;;;;;;;;;;;;;;;;;;2208651;67;1176;-75
2022/07/03 08:10:25;;;;;;;;;;;;;;;;;;2208467;67;1342;-75
2022/07/03 08:12:59;;;;;;;;;;;;;;;;;;2209508;59;1349;-74
2022/07/03 08:15:32;;;;;;;;;;;;;;;;;;2208424;67;1972;-74
2022/07/03 08:18:08;;;;;;;;;;;;;;;;;;2209065;67;1089;-74
2022/07/03 08:20:41;;;;;;;;;;;;;;;;;;2205346;67;1200;-74
2022/07/03 08:23:15;;;;;;;;;;;;;;;;;;2206131;67;1974;-74
2022/07/03 08:25:48;;;;;;;;;;;;;;;;;;2209583;59;1346;-74
2022/07/03 08:28:21;;;;;;;;;;;;;;;;;;2209620;67;1099;-75
2022/07/03 08:30:54;;;;;;;;;;;;;;;;;;2209478;59;1947;-75
2022/07/03 08:33:30;;;;;;;;;;;;;;;;;;2209067;67;1084;-75
2022/07/03 08:36:03;;;;;;;;;;;;;;;;;;2209948;67;1929;-75
2022/07/03 08:38:37;;;;;;;;;;;;;;;;;;2209511;67;1248;-75
2022/07/03 08:41:11;;;;;;;;;;;;;;;;;;2209889;59;2058;-75
2022/07/03 08:43:44;;;;;;;;;;;;;;;;;;2209388;67;1227;-74
2022/07/03 08:46:18;;;;;;;;;;;;;;;;;;2209294;67;1134;-75
2022/07/03 08:48:54;;;;;;;;;;;;;;;;;;2209932;67;1230;-75
2022/07/03 08:51:28;;;;;;;;;;;;;;;;;;2205972;67;1300;-75
2022/07/03 08:54:02;;;;;;;;;;;;;;;;;;2209920;67;1239;-75
2022/07/03 08:56:37;;;;;;;;;;;;;;;;;;2210303;67;1976;-75
2022/07/03 08:59:11;;;;;;;;;;;;;;;;;;2208975;67;1276;-74
2022/07/03 09:01:44;;;;;;;;;;;;;;;;;;2209380;59;1216;-75
2022/07/03 09:04:20;;;;;;;;;;;;;;;;;;2209499;67;1221;-75
2022/07/03 09:06:53;;;;;;;;;;;;;;;;;;2209390;67;1163;-75
2022/07/03 09:09:26;;;;;;;;;;;;;;;;;;2209366;67;1250;-75
2022/07/03 09:12:01;;;;;;;;;;;;;;;;;;2209802;59;1342;-74
2022/07/03 09:14:35;;;;;;;;;;;;;;;;;;2209655;67;1098;-76
2022/07/03 09:17:08;;;;;;;;;;;;;;;;;;2209079;67;1953;-75
2022/07/03 09:19:46;;;;;;;;;;;;;;;;;;2209515;67;1150;-75
2022/07/03 09:22:24;;;;;;;;;;;;;;;;;;2210313;67;1192;-75
2022/07/03 09:25:06;;;;;;;;;;;;;;;;;;2209605;67;1286;-75
2022/07/03 09:27:39;;;;;;;;;;;;;;;;;;2210171;59;1573;-74
2022/07/03 09:30:12;;;;;;;;;;;;;;;;;;2209921;67;1977;-75
2022/07/03 09:32:46;;;;;;;;;;;;;;;;;;2209352;59;1130;-74
2022/07/03 09:35:23;;;;;;;;;;;;;;;;;;2209446;67;1930;-75
2022/07/03 09:37:57;;;;;;;;;;;;;;;;;;2209880;59;1228;-75
2022/07/03 09:40:49;;;;;;;;;;;;;;;;;;2208874;67;1076;-75
2022/07/03 09:43:25;;;;;;;;;;;;;;;;;;2210119;67;1217;-75
2022/07/03 09:45:59;;;;;;;;;;;;;;;;;;2209816;59;1243;-75
2022/07/03 09:48:32;;;;;;;;;;;;;;;;;;2209905;67;1119;-75
2022/07/03 09:51:15;;;;;;;;;;;;;;;;;;2209999;67;1227;-75
2022/07/03 09:53:53;;;;;;;;;;;;;;;;;;2209916;59;1105;-75
2022/07/03 09:56:27;;;;;;;;;;;;;;;;;;2206137;67;1937;-75
2022/07/03 09:59:01;;;;;;;;;;;;;;;;;;2209160;59;1242;-75
2022/07/03 10:01:35;;;;;;;;;;;;;;;;;;2209185;59;1117;-75
2022/07/03 10:04:12;;;;;;;;;;;;;;;;;;2209554;59;1398;-75
2022/07/03 10:06:52;;;;;;;;;;;;;;;;;;2209641;67;1127;-75
2022/07/03 10:09:25;;;;;;;;;;;;;;;;;;2208793;67;1166;-75
2022/07/03 10:11:59;;;;;;;;;;;;;;;;;;2209899;59;1257;-75
2022/07/03 10:14:33;;;;;;;;;;;;;;;;;;2208966;59;1066;-75
2022/07/03 10:17:08;;;;;;;;;;;;;;;;;;2209307;67;2004;-75
2022/07/03 10:19:42;;;;;;;;;;;;;;;;;;2209088;59;1129;-75
2022/07/03 10:22:21;;;;;;;;;;;;;;;;;;2205757;67;2358;-75
2022/07/03 10:24:55;;;;;;;;;;;;;;;;;;2209222;67;1326;-75
2022/07/03 10:27:30;;;;;;;;;;;;;;;;;;2209650;59;1365;-75
2022/07/03 10:30:04;;;;;;;;;;;;;;;;;;2209367;67;1155;-75
2022/07/03 10:32:40;;;;;;;;;;;;;;;;;;2208732;59;2219;-75
2022/07/03 10:35:14;;;;;;;;;;;;;;;;;;2209357;67;1202;-75
2022/07/03 10:38:09;;;;;;;;;;;;;;;;;;2208828;67;2002;-75
2022/07/03 10:46:25;;;;;;;;;;;;;;;;;;2209563;67;1102;-75
2022/07/03 10:49:04;;;;;;;;;;;;;;;;;;2206129;67;1602;-75
2022/07/03 10:51:56;;;;;;;;;;;;;;;;;;2208768;67;1198;-75
2022/07/03 10:54:33;;;;;;;;;;;;;;;;;;2208470;59;1096;-76
2022/07/03 10:57:10;;;;;;;;;;;;;;;;;;2209153;67;1992;-76
2022/07/03 11:00:06;;;;;;;;;;;;;;;;;;2209085;67;1038;-76
2022/07/03 11:02:40;;;;;;;;;;;;;;;;;;2209158;67;1220;-75
2022/07/03 11:05:19;;;;;;;;;;;;;;;;;;2209053;59;1441;-75
2022/07/03 11:08:08;;;;;;;;;;;;;;;;;;2209193;59;1060;-75
2022/07/03 11:11:54;;;;;;;;;;;;;;;;;;2208602;59;1220;-75
2022/07/03 11:14:01;;;;;;;;;;;;;;;;;;2269139;53;2008;-66
2022/07/03 11:16:37;;;;;;;;;;;;;;;;;;2204296;67;1920;-65
2022/07/03 11:19:10;;;;;;;;;;;;;;;;;;2204868;67;1233;-65
2022/07/03 11:21:45;;;;;;;;;;;;;;;;;;2204822;67;1093;-65
2022/07/03 11:24:29;;;;;;;;;;;;;;;;;;2205284;67;1109;-66
2022/07/03 11:27:23;;;;;;;;;;;;;;;;;;2204683;59;1317;-64
2022/07/03 11:29:57;;;;;;;;;;;;;;;;;;2204418;67;1659;-66
2022/07/03 11:32:57;;;;;;;;;;;;;;;;;;2204855;59;2205;-65
2022/07/03 11:35:50;;;;;;;;;;;;;;;;;;2204165;67;1106;-66
2022/07/03 11:38:28;;;;;;;;;;;;;;;;;;2205750;67;1239;-66
2022/07/03 11:41:02;;;;;;;;;;;;;;;;;;2205202;59;2104;-62
2022/07/03 11:43:35;;;;;;;;;;;;;;;;;;2206563;67;1073;-65
2022/07/03 11:46:08;;;;;;;;;;;;;;;;;;2205136;67;1292;-66
2022/07/03 11:48:44;;;;;;;;;;;;;;;;;;2204655;67;1290;-65
2022/07/03 11:51:18;;;;;;;;;;;;;;;;;;2205558;67;1292;-65
2022/07/03 11:53:51;;;;;;;;;;;;;;;;;;2205759;67;1155;-65
2022/07/03 11:56:24;;;;;;;;;;;;;;;;;;2206570;60;1930;-66
2022/07/03 11:58:58;;;;;;;;;;;;;;;;;;2205387;67;1235;-64
2022/07/03 12:01:33;;;;;;;;;;;;;;;;;;2205142;67;1303;-66
2022/07/03 12:04:10;;;;;;;;;;;;;;;;;;2206646;67;1271;-66
2022/07/03 12:06:44;;;;;;;;;;;;;;;;;;2206466;67;1041;-66
2022/07/03 12:09:18;;;;;;;;;;;;;;;;;;2206044;67;1269;-64
2022/07/03 12:11:55;;;;;;;;;;;;;;;;;;2206764;59;1277;-65
2022/07/03 12:14:38;;;;;;;;;;;;;;;;;;2206896;59;1106;-65
2022/07/03 12:17:12;;;;;;;;;;;;;;;;;;2206062;67;1938;-64
2022/07/03 12:19:51;;;;;;;;;;;;;;;;;;2206284;59;1157;-65
2022/07/03 12:22:28;;;;;;;;;;;;;;;;;;2207151;67;1188;-66
2022/07/03 12:25:03;;;;;;;;;;;;;;;;;;2205338;67;1192;-66
2022/07/03 12:27:37;;;;;;;;;;;;;;;;;;2205967;59;1633;-66
2022/07/03 12:30:11;;;;;;;;;;;;;;;;;;2206202;59;1869;-66
2022/07/03 12:32:47;;;;;;;;;;;;;;;;;;2206287;67;1060;-65
2022/07/03 12:35:26;;;;;;;;;;;;;;;;;;2205933;67;1261;-65
2022/07/03 12:37:59;;;;;;;;;;;;;;;;;;2205640;67;1932;-65
2022/07/03 12:40:32;;;;;;;;;;;;;;;;;;2205488;59;1219;-65
2022/07/03 12:43:05;;;;;;;;;;;;;;;;;;2203201;67;1920;-65
2022/07/03 12:45:39;;;;;;;;;;;;;;;;;;2205728;62;1169;-65
2022/07/03 12:48:12;;;;;;;;;;;;;;;;;;2206389;67;1250;-65
2022/07/03 12:50:51;;;;;;;;;;;;;;;;;;2205891;59;1521;-64
2022/07/03 12:53:31;;;;;;;;;;;;;;;;;;2207697;59;2063;-65
2022/07/03 12:56:04;;;;;;;;;;;;;;;;;;2206631;59;1802;-64
2022/07/03 13:01:38;;;;;;;;;;;;;;;;;;2190614;67;1173;-65
2022/07/03 13:04:14;;;;;;;;;;;;;;;;;;2204346;67;3017;-66
2022/07/03 13:07:01;;;;;;;;;;;;;;;;;;2207110;67;1026;-64
2022/07/03 13:09:34;;;;;;;;;;;;;;;;;;2205880;67;1171;-64
2022/07/03 13:12:08;;;;;;;;;;;;;;;;;;2206410;59;1268;-65
2022/07/03 13:14:41;;;;;;;;;;;;;;;;;;2204439;60;1049;-65
2022/07/03 13:17:14;;;;;;;;;;;;;;;;;;2206137;67;1953;-64
2022/07/03 13:19:47;;;;;;;;;;;;;;;;;;2204328;67;1297;-64
2022/07/03 13:22:23;;;;;;;;;;;;;;;;;;2206223;67;1175;-66
2022/07/03 13:24:56;;;;;;;;;;;;;;;;;;2205186;59;1189;-66
2022/07/03 13:27:30;;;;;;;;;;;;;;;;;;2205422;59;1343;-65
2022/07/03 13:30:03;;;;;;;;;;;;;;;;;;2205205;67;1144;-66
2022/07/03 13:32:36;;;;;;;;;;;;;;;;;;2206769;59;2351;-66
2022/07/03 13:35:09;;;;;;;;;;;;;;;;;;2205068;67;1312;-66
2022/07/03 13:37:45;;;;;;;;;;;;;;;;;;2206022;67;1918;-66
2022/07/03 13:40:19;;;;;;;;;;;;;;;;;;2205549;67;1249;-65
2022/07/03 13:42:52;;;;;;;;;;;;;;;;;;2205709;59;2263;-66
2022/07/03 13:45:25;;;;;;;;;;;;;;;;;;2204972;67;1239;-65
2022/07/03 13:47:58;;;;;;;;;;;;;;;;;;2205471;59;1243;-65
2022/07/03 13:50:31;;;;;;;;;;;;;;;;;;2205849;67;1275;-65
2022/07/03 13:53:07;;;;;;;;;;;;;;;;;;2206950;67;1204;-64
2022/07/03 13:55:40;;;;;;;;;;;;;;;;;;2204795;59;1741;-66
2022/07/03 13:58:14;;;;;;;;;;;;;;;;;;2206654;67;1953;-66
2022/07/03 14:00:47;;;;;;;;;;;;;;;;;;2204813;67;1142;-65
2022/07/03 14:03:20;;;;;;;;;;;;;;;;;;2206014;59;1351;-66
2022/07/03 14:05:53;;;;;;;;;;;;;;;;;;2205874;67;1140;-66
2022/07/03 14:08:29;;;;;;;;;;;;;;;;;;2205592;59;1825;-64
2022/07/03 14:11:02;;;;;;;;;;;;;;;;;;2206785;59;1387;-64
2022/07/03 14:13:35;;;;;;;;;;;;;;;;;;2205143;59;1145;-65
2022/07/03 14:16:09;;;;;;;;;;;;;;;;;;2205315;67;1191;-65
2022/07/03 14:18:42;;;;;;;;;;;;;;;;;;2205030;67;1945;-64
2022/07/03 14:21:15;;;;;;;;;;;;;;;;;;2206401;67;1253;-66
2022/07/03 14:23:51;;;;;;;;;;;;;;;;;;2205234;67;1138;-65
2022/07/03 14:34:47;;;;;;;;;;;;;;;;;;2205087;67;1148;-66
2022/07/03 14:37:21;;;;;;;;;;;;;;;;;;2206194;67;1929;-65
2022/07/03 14:39:57;;;;;;;;;;;;;;;;;;2205630;67;1204;-64
2022/07/03 14:42:30;;;;;;;;;;;;;;;;;;2205091;59;2018;-66
2022/07/03 14:45:03;;;;;;;;;;;;;;;;;;2207010;67;1261;-64
2022/07/03 14:47:36;;;;;;;;;;;;;;;;;;2205430;67;1450;-65
2022/07/03 14:50:10;;;;;;;;;;;;;;;;;;2206277;67;1027;-65
2022/07/03 14:52:43;;;;;;;;;;;;;;;;;;2205711;67;1235;-64
2022/07/03 14:55:19;;;;;;;;;;;;;;;;;;2206291;67;1186;-65
2022/07/03 14:57:55;;;;;;;;;;;;;;;;;;2205771;67;1941;-65
2022/07/03 15:00:29;;;;;;;;;;;;;;;;;;2206193;59;1909;-65
2022/07/03 15:03:06;;;;;;;;;;;;;;;;;;2205696;67;1776;-65
2022/07/03 15:05:42;;;;;;;;;;;;;;;;;;2205120;59;1735;-64
2022/07/03 15:08:21;;;;;;;;;;;;;;;;;;2206601;67;1239;-66
2022/07/03 15:10:58;;;;;;;;;;;;;;;;;;2206522;67;1291;-66
2022/07/03 15:13:31;;;;;;;;;;;;;;;;;;2206632;59;1080;-65
2022/07/03 15:16:05;;;;;;;;;;;;;;;;;;2205737;59;1668;-66
2022/07/03 15:18:38;;;;;;;;;;;;;;;;;;2205902;67;1988;-66
2022/07/03 15:21:12;;;;;;;;;;;;;;;;;;2206847;67;1209;-66
2022/07/03 15:23:46;;;;;;;;;;;;;;;;;;2207096;67;1143;-65
2022/07/03 15:26:22;;;;;;;;;;;;;;;;;;2206870;67;1290;-64
2022/07/03 15:28:57;;;;;;;;;;;;;;;;;;2207433;67;1420;-66
2022/07/03 15:31:30;;;;;;;;;;;;;;;;;;2205777;59;2063;-66
2022/07/03 15:34:05;;;;;;;;;;;;;;;;;;2206970;67;1203;-64
2022/07/03 15:36:40;;;;;;;;;;;;;;;;;;2207277;67;1075;-65
2022/07/03 15:39:16;;;;;;;;;;;;;;;;;;2207160;67;1982;-66
2022/07/03 15:42:03;;;;;;;;;;;;;;;;;;2206526;59;1949;-66
2022/07/03 15:44:40;;;;;;;;;;;;;;;;;;2206524;67;1110;-64
2022/07/03 15:47:22;;;;;;;;;;;;;;;;;;2206921;67;1179;-65
2022/07/03 15:49:59;;;;;;;;;;;;;;;;;;2206919;67;1315;-66
2022/07/03 15:52:33;;;;;;;;;;;;;;;;;;2206190;67;1090;-65
2022/07/03 15:55:07;;;;;;;;;;;;;;;;;;2207122;67;1183;-66
2022/07/03 15:57:50;;;;;;;;;;;;;;;;;;2206878;67;1935;-66
2022/07/03 16:00:25;;;;;;;;;;;;;;;;;;2207060;59;1246;-66
2022/07/03 16:03:05;;;;;;;;;;;;;;;;;;2206772;67;1296;-65
2022/07/03 16:05:39;;;;;;;;;;;;;;;;;;2206727;67;1479;-66
2022/07/03 16:08:14;;;;;;;;;;;;;;;;;;2206147;67;1195;-66
2022/07/03 16:10:47;;;;;;;;;;;;;;;;;;2207574;59;1390;-67
2022/07/03 16:13:26;;;;;;;;;;;;;;;;;;2206906;59;1164;-66
2022/07/03 16:16:00;;;;;;;;;;;;;;;;;;2206978;67;1230;-66
2022/07/03 16:18:35;;;;;;;;;;;;;;;;;;2206204;67;1938;-66
2022/07/03 16:21:09;;;;;;;;;;;;;;;;;;2206480;67;1111;-66
2022/07/03 16:23:46;;;;;;;;;;;;;;;;;;2205750;67;1193;-66
2022/07/03 16:26:19;;;;;;;;;;;;;;;;;;2207179;59;1331;-66
2022/07/03 16:28:55;;;;;;;;;;;;;;;;;;2205599;59;1856;-66
2022/07/03 16:31:34;;;;;;;;;;;;;;;;;;2206146;59;2009;-66
2022/07/03 16:34:13;;;;;;;;;;;;;;;;;;2205170;67;1117;-66
2022/07/03 16:36:49;;;;;;;;;;;;;;;;;;2205387;60;1078;-66
2022/07/03 16:39:26;;;;;;;;;;;;;;;;;;2205491;59;1933;-66
2022/07/03 16:42:00;;;;;;;;;;;;;;;;;;2206154;59;2009;-65
2022/07/03 16:44:39;;;;;;;;;;;;;;;;;;2204467;67;1096;-66
2022/07/03 16:47:12;;;;;;;;;;;;;;;;;;2205916;59;1178;-66
2022/07/03 16:49:47;;;;;;;;;;;;;;;;;;2205234;67;1205;-66
2022/07/03 16:52:22;;;;;;;;;;;;;;;;;;2205625;67;1148;-65
2022/07/03 16:54:56;;;;;;;;;;;;;;;;;;2205685;67;1108;-65
2022/07/03 16:57:30;;;;;;;;;;;;;;;;;;2204974;67;1223;-65
2022/07/03 17:00:06;;;;;;;;;;;;;;;;;;2206225;67;1935;-65
2022/07/03 17:02:40;;;;;;;;;;;;;;;;;;2205034;59;1236;-66
2022/07/03 17:05:14;;;;;;;;;;;;;;;;;;2206238;67;1172;-66
2022/07/03 17:07:47;;;;;;;;;;;;;;;;;;2205701;67;1180;-65
2022/07/03 17:10:21;;;;;;;;;;;;;;;;;;2205612;67;1253;-66
2022/07/03 17:12:57;;;;;;;;;;;;;;;;;;2206488;59;1622;-66
2022/07/03 17:15:32;;;;;;;;;;;;;;;;;;2205290;67;1006;-65
2022/07/03 17:18:07;;;;;;;;;;;;;;;;;;2205349;67;1918;-65
2022/07/03 17:20:41;;;;;;;;;;;;;;;;;;2205772;59;1940;-65
2022/07/03 17:23:16;;;;;;;;;;;;;;;;;;2204987;67;1172;-64
2022/07/03 17:25:52;;;;;;;;;;;;;;;;;;2205447;59;1293;-64
2022/07/03 17:28:27;;;;;;;;;;;;;;;;;;2205657;67;1183;-64
2022/07/03 17:31:06;;;;;;;;;;;;;;;;;;2204729;59;2082;-66
2022/07/03 17:33:40;;;;;;;;;;;;;;;;;;2205511;67;1275;-66
2022/07/03 17:36:17;;;;;;;;;;;;;;;;;;2205795;67;1250;-65
2022/07/03 17:38:52;;;;;;;;;;;;;;;;;;2205243;67;1934;-65
2022/07/03 17:41:26;;;;;;;;;;;;;;;;;;2206518;59;1973;-65
2022/07/03 17:44:00;;;;;;;;;;;;;;;;;;2205001;67;1113;-65
2022/07/03 17:46:38;;;;;;;;;;;;;;;;;;2205028;67;1233;-65
2022/07/03 17:49:12;;;;;;;;;;;;;;;;;;2205815;67;1833;-65
2022/07/03 17:51:46;;;;;;;;;;;;;;;;;;2206278;67;1151;-66
2022/07/03 17:54:19;;;;;;;;;;;;;;;;;;2206190;67;1113;-66
2022/07/03 17:56:53;;;;;;;;;;;;;;;;;;2206207;67;1282;-66
2022/07/03 17:59:27;;;;;;;;;;;;;;;;;;2206005;67;1937;-65
2022/07/03 18:02:02;;;;;;;;;;;;;;;;;;2206000;67;1196;-65
2022/07/03 18:04:36;;;;;;;;;;;;;;;;;;2206250;59;1248;-66
2022/07/03 18:07:09;;;;;;;;;;;;;;;;;;2205716;67;1176;-65
2022/07/03 18:09:42;;;;;;;;;;;;;;;;;;2205674;67;1201;-65
2022/07/03 18:12:18;;;;;;;;;;;;;;;;;;2206331;59;1237;-65
2022/07/03 18:14:55;;;;;;;;;;;;;;;;;;2206452;67;1292;-64
2022/07/03 18:17:34;;;;;;;;;;;;;;;;;;2206127;67;1208;-64
2022/07/03 18:20:08;;;;;;;;;;;;;;;;;;2205199;59;1941;-64
2022/07/03 18:22:41;;;;;;;;;;;;;;;;;;2202552;67;1163;-63
2022/07/03 18:25:14;;;;;;;;;;;;;;;;;;2205974;59;1593;-63
2022/07/03 18:27:49;;;;;;;;;;;;;;;;;;2206023;67;1232;-66
2022/07/03 18:30:24;;;;;;;;;;;;;;;;;;2205240;59;1813;-65
2022/07/03 18:33:01;;;;;;;;;;;;;;;;;;2205532;67;1168;-65
2022/07/03 18:35:34;;;;;;;;;;;;;;;;;;2205562;60;1144;-64
2022/07/03 18:38:10;;;;;;;;;;;;;;;;;;2205628;59;1261;-65